Time;durP1;ratioP1;P1;durP2;ratioP2;P2;SDS_P1;SDS_P2;PMS_P1;PMS_P2;Temp;Humidity;BMP_temperature;BMP_pressure;BME280_temperature;BME280_humidity;BME280_pressure;Samples;Min_cycle;Max_cycle;Signal;HPM_P1;HPM_P2
2022/06/26 00:01:35;;;;;;;8.93;8.03;;;18.80;1.00;;;;;;5034603;28;20195;-75
2022/06/26 00:04:02;;;;;;;11.40;10.07;;;18.80;1.00;;;;;;5034921;28;20160;-70
2022/06/26 00:06:28;;;;;;;8.60;7.70;;;18.80;1.00;;;;;;5034245;28;20517;-73
2022/06/26 00:08:54;;;;;;;8.30;7.60;;;18.80;1.00;;;;;;5034601;28;20509;-72
2022/06/26 00:11:20;;;;;;;7.77;7.07;;;18.80;1.00;;;;;;5035506;28;20164;-71
2022/06/26 00:13:45;;;;;;;9.50;8.63;;;18.80;1.00;;;;;;5034703;28;20176;-75
2022/06/26 00:16:11;;;;;;;8.73;8.03;;;18.80;1.00;;;;;;5034424;28;20537;-71
2022/06/26 00:18:37;;;;;;;8.23;7.53;;;18.80;1.00;;;;;;5033439;28;20237;-73
2022/06/26 00:21:03;;;;;;;8.63;7.83;;;18.80;1.00;;;;;;5034163;28;20230;-75
2022/06/26 00:23:29;;;;;;;9.07;8.20;;;18.80;1.00;;;;;;5033949;28;20510;-75
2022/06/26 00:25:55;;;;;;;8.23;7.53;;;18.70;1.00;;;;;;5034498;28;20407;-75
2022/06/26 00:28:20;;;;;;;8.67;7.83;;;18.70;1.00;;;;;;5033343;28;20195;-74
2022/06/26 00:30:46;;;;;;;9.30;8.50;;;18.70;1.00;;;;;;5034388;28;20176;-73
2022/06/26 00:33:12;;;;;;;11.10;7.93;;;18.70;1.00;;;;;;5034394;28;20172;-70
2022/06/26 00:35:38;;;;;;;8.37;7.57;;;18.70;1.00;;;;;;5033713;28;20403;-70
2022/06/26 00:38:03;;;;;;;9.97;8.97;;;18.60;1.00;;;;;;5033124;28;20184;-72
2022/06/26 00:40:29;;;;;;;9.97;9.10;;;18.60;1.00;;;;;;5034015;28;20168;-70
2022/06/26 00:42:55;;;;;;;9.60;8.70;;;18.60;1.00;;;;;;5034085;28;20164;-75
2022/06/26 00:45:23;;;;;;;11.20;9.60;;;18.60;1.00;;;;;;5034179;28;20679;-75
2022/06/26 00:47:49;;;;;;;10.30;9.23;;;18.70;1.00;;;;;;5033148;28;20506;-70
2022/06/26 00:50:14;;;;;;;9.63;8.20;;;18.70;1.00;;;;;;5033878;28;20433;-71
2022/06/26 00:52:40;;;;;;;8.73;8.03;;;18.80;7.00;;;;;;5033823;28;20293;-74
2022/06/26 00:55:07;;;;;;;8.67;7.77;;;18.80;16.40;;;;;;5033348;28;20175;-73
2022/06/26 00:57:36;;;;;;;8.23;7.63;;;18.80;23.40;;;;;;5033017;28;20402;-74
2022/06/26 01:00:04;;;;;;;9.83;8.97;;;18.80;27.10;;;;;;5033759;28;20838;-72
2022/06/26 01:02:30;;;;;;;9.70;8.80;;;18.80;32.10;;;;;;5033655;28;20457;-75
2022/06/26 01:04:56;;;;;;;9.90;8.20;;;18.80;41.30;;;;;;5033613;28;20759;-74
2022/06/26 01:07:21;;;;;;;10.27;9.37;;;18.80;41.30;;;;;;5032814;28;20239;-72
2022/06/26 01:09:47;;;;;;;9.33;8.60;;;18.80;41.40;;;;;;5033529;28;20656;-74
2022/06/26 01:12:13;;;;;;;9.07;8.13;;;18.80;41.30;;;;;;5032996;28;20171;-75
2022/06/26 01:14:39;;;;;;;9.40;8.50;;;18.80;41.30;;;;;;5033575;28;20182;-73
2022/06/26 01:17:04;;;;;;;10.20;9.20;;;18.80;41.30;;;;;;5031475;28;20215;-70
2022/06/26 01:19:30;;;;;;;9.13;8.33;;;18.80;46.60;;;;;;5033398;28;20194;-74
2022/06/26 01:21:56;;;;;;;9.07;8.27;;;18.70;45.00;;;;;;5033414;28;20187;-71
2022/06/26 01:24:22;;;;;;;9.03;8.23;;;18.70;47.40;;;;;;5033390;28;20463;-75
2022/06/26 01:26:48;;;;;;;13.83;8.40;;;18.70;44.60;;;;;;5032371;28;20371;-72
2022/06/26 01:29:13;;;;;;;9.67;8.47;;;18.60;41.70;;;;;;5033297;28;20218;-75
2022/06/26 01:31:40;;;;;;;9.13;8.33;;;18.60;44.90;;;;;;5031487;28;20631;-74
2022/06/26 01:34:07;;;;;;;9.17;8.27;;;18.60;47.10;;;;;;5033148;28;20257;-70
2022/06/26 01:36:33;;;;;;;8.80;8.20;;;18.60;53.50;;;;;;5031850;28;20413;-70
2022/06/26 01:38:59;;;;;;;8.60;7.90;;;18.60;48.50;;;;;;5033023;28;20438;-74
2022/06/26 01:41:25;;;;;;;8.97;8.17;;;18.60;54.90;;;;;;5033076;28;20203;-75
2022/06/26 01:43:51;;;;;;;9.87;9.03;;;18.60;59.20;;;;;;5033235;28;20190;-71
2022/06/26 01:46:16;;;;;;;13.40;9.20;;;18.60;60.80;;;;;;5032871;28;20497;-74
2022/06/26 01:48:42;;;;;;;9.47;8.67;;;18.60;65.20;;;;;;5032477;28;20188;-74
2022/06/26 01:51:08;;;;;;;9.63;8.83;;;18.60;66.80;;;;;;5032324;28;20163;-71
2022/06/26 01:53:36;;;;;;;10.07;9.27;;;18.60;68.30;;;;;;5033003;28;20402;-70
2022/06/26 01:56:03;;;;;;;9.80;8.97;;;18.60;71.80;;;;;;5033115;28;20405;-74
2022/06/26 01:58:29;;;;;;;10.37;9.37;;;18.60;73.80;;;;;;5032055;28;20418;-70
2022/06/26 02:00:54;;;;;;;9.43;8.50;;;18.60;72.80;;;;;;5032890;28;20450;-75
2022/06/26 02:03:22;;;;;;;13.70;9.93;;;18.60;82.80;;;;;;5033043;28;20174;-75
2022/06/26 02:05:47;;;;;;;10.57;9.47;;;18.60;87.20;;;;;;5032891;28;20187;-74
2022/06/26 02:08:13;;;;;;;10.80;8.50;;;18.60;87.30;;;;;;5031414;28;20891;-74
2022/06/26 02:13:36;;;;;;;11.63;10.63;;;18.60;92.00;;;;;;5032986;28;20182;-71
2022/06/26 02:16:05;;;;;;;9.97;9.07;;;18.70;95.30;;;;;;5032927;28;20933;-71
2022/06/26 02:18:32;;;;;;;11.13;10.03;;;18.70;98.80;;;;;;5031825;28;20465;-74
2022/06/26 02:20:57;;;;;;;11.40;10.23;;;18.80;99.90;;;;;;5032736;28;20784;-74
2022/06/26 02:23:23;;;;;;;10.63;9.53;;;18.80;99.90;;;;;;5032531;28;20421;-71
2022/06/26 02:25:49;;;;;;;9.60;8.67;;;18.80;99.90;;;;;;5032363;28;20553;-70
2022/06/26 02:28:18;;;;;;;10.77;9.73;;;18.80;99.90;;;;;;5031822;28;22787;-74
2022/06/26 02:30:46;;;;;;;11.67;10.57;;;18.90;99.90;;;;;;5032663;28;20398;-73
2022/06/26 02:33:11;;;;;;;13.13;10.97;;;18.90;99.90;;;;;;5032773;28;20410;-74
2022/06/26 02:35:37;;;;;;;11.23;9.90;;;19.00;99.90;;;;;;5032558;28;20906;-70
2022/06/26 02:38:03;;;;;;;13.90;10.13;;;19.00;99.90;;;;;;5031620;28;20226;-75
2022/06/26 02:40:30;;;;;;;11.00;9.90;;;19.10;99.90;;;;;;5032617;28;20272;-70
2022/06/26 02:42:57;;;;;;;10.73;9.73;;;19.10;99.90;;;;;;5032009;28;20164;-70
2022/06/26 02:45:23;;;;;;;11.13;10.03;;;19.20;99.90;;;;;;5032384;28;20895;-72
2022/06/26 02:47:49;;;;;;;11.37;10.23;;;19.20;99.90;;;;;;5034808;28;20408;-74
2022/06/26 02:50:15;;;;;;;10.73;9.73;;;19.20;99.90;;;;;;5036158;28;20521;-75
2022/06/26 02:52:42;;;;;;;11.37;10.23;;;19.20;99.90;;;;;;5036331;28;20891;-71
2022/06/26 02:55:08;;;;;;;11.63;10.63;;;19.20;99.90;;;;;;5036202;28;20405;-75
2022/06/26 02:57:33;;;;;;;10.77;9.77;;;19.20;99.90;;;;;;5035162;28;20483;-75
2022/06/26 02:59:59;;;;;;;10.67;9.30;;;19.20;99.90;;;;;;5035377;28;20919;-74
2022/06/26 03:02:25;;;;;;;10.70;9.70;;;19.20;99.90;;;;;;5035938;28;20217;-75
2022/06/26 03:04:52;;;;;;;10.57;9.57;;;19.20;99.90;;;;;;5036006;28;20193;-70
2022/06/26 03:07:18;;;;;;;9.73;8.80;;;19.20;99.90;;;;;;5035113;28;20160;-70
2022/06/26 03:09:44;;;;;;;9.20;8.40;;;19.20;99.90;;;;;;5035729;28;20827;-74
2022/06/26 03:12:09;;;;;;;9.67;8.77;;;19.20;99.90;;;;;;5035843;28;20398;-70
2022/06/26 03:14:35;;;;;;;8.77;7.97;;;19.20;99.90;;;;;;5035893;28;20171;-70
2022/06/26 03:17:01;;;;;;;10.77;9.70;;;19.20;99.90;;;;;;5034842;28;20815;-74
2022/06/26 03:19:27;;;;;;;13.20;9.97;;;19.20;99.90;;;;;;5035022;28;20426;-71
2022/06/26 03:21:53;;;;;;;11.30;10.43;;;19.10;99.90;;;;;;5035621;28;20219;-75
2022/06/26 03:24:20;;;;;;;10.77;9.67;;;19.10;99.90;;;;;;5035650;28;20505;-70
2022/06/26 03:26:46;;;;;;;10.80;9.73;;;19.10;99.90;;;;;;5034722;28;20401;-71
2022/06/26 03:29:12;;;;;;;10.17;9.27;;;19.10;99.90;;;;;;5035514;28;20426;-75
2022/06/26 03:31:39;;;;;;;10.50;9.40;;;19.00;99.90;;;;;;5035453;28;20895;-74
2022/06/26 03:34:04;;;;;;;10.17;9.27;;;19.00;99.90;;;;;;5035350;28;20174;-70
2022/06/26 03:36:30;;;;;;;10.03;9.13;;;19.00;99.90;;;;;;5034040;28;20403;-71
2022/06/26 03:38:56;;;;;;;10.00;9.00;;;19.00;99.90;;;;;;5035204;28;20227;-70
2022/06/26 03:41:22;;;;;;;9.27;8.47;;;19.00;99.90;;;;;;5035313;28;20222;-74
2022/06/26 03:43:49;;;;;;;8.93;8.27;;;19.00;99.90;;;;;;5035186;28;20413;-70
2022/06/26 03:46:15;;;;;;;10.00;8.90;;;19.00;99.90;;;;;;5034939;28;20406;-70
2022/06/26 03:48:41;;;;;;;12.20;8.67;;;19.00;99.90;;;;;;5034474;28;20822;-74
2022/06/26 03:51:07;;;;;;;11.97;9.90;;;19.00;99.90;;;;;;5035178;28;20752;-75
2022/06/26 03:53:34;;;;;;;13.00;11.60;;;19.10;99.90;;;;;;5034705;28;20422;-72
2022/06/26 03:56:00;;;;;;;11.27;10.27;;;19.10;99.90;;;;;;5034957;28;20517;-70
2022/06/26 03:58:26;;;;;;;15.30;11.30;;;19.10;99.90;;;;;;5033107;28;20505;-75
2022/06/26 04:00:52;;;;;;;11.30;10.20;;;19.20;99.90;;;;;;5034871;28;20204;-70
2022/06/26 04:03:18;;;;;;;10.20;9.17;;;19.20;99.90;;;;;;5035079;28;20164;-70
2022/06/26 04:05:44;;;;;;;11.47;10.33;;;19.20;99.90;;;;;;5034861;28;20399;-75
2022/06/26 04:08:10;;;;;;;11.57;10.37;;;19.30;99.90;;;;;;5033835;28;20736;-74
2022/06/26 04:10:36;;;;;;;10.63;9.57;;;19.30;99.90;;;;;;5034325;28;20612;-70
2022/06/26 04:13:08;;;;;;;10.67;9.67;;;19.30;99.90;;;;;;5034581;28;20433;-75
2022/06/26 04:15:35;;;;;;;10.30;9.40;;;19.30;99.90;;;;;;5034741;28;20481;-71
2022/06/26 04:18:02;;;;;;;10.80;9.90;;;19.30;99.90;;;;;;5033610;28;20851;-71
2022/06/26 04:20:28;;;;;;;10.57;9.47;;;19.30;99.90;;;;;;5034490;28;20402;-70
2022/06/26 04:22:59;;;;;;;12.73;11.53;;;19.40;99.90;;;;;;5034564;28;20946;-70
2022/06/26 04:25:25;;;;;;;11.50;10.30;;;19.30;99.90;;;;;;5034365;28;20493;-73
2022/06/26 04:27:51;;;;;;;10.77;9.73;;;19.30;99.90;;;;;;5033398;28;20438;-74
2022/06/26 04:30:18;;;;;;;12.10;11.00;;;19.40;99.90;;;;;;5033908;28;20812;-75
2022/06/26 04:32:43;;;;;;;14.47;12.33;;;19.40;99.90;;;;;;5034390;28;20442;-71
2022/06/26 04:35:10;;;;;;;13.20;12.00;;;19.40;99.90;;;;;;5034402;28;20403;-75
2022/06/26 04:37:37;;;;;;;12.37;11.07;;;19.50;99.90;;;;;;5033384;28;20174;-70
2022/06/26 04:40:07;;;;;;;12.73;11.63;;;19.50;99.90;;;;;;5034094;28;20422;-70
2022/06/26 04:42:33;;;;;;;13.57;12.27;;;19.50;99.90;;;;;;5033990;28;20454;-70
2022/06/26 04:44:59;;;;;;;17.07;11.70;;;19.60;99.90;;;;;;5032975;28;20406;-74
2022/06/26 04:47:24;;;;;;;15.00;13.40;;;19.60;99.90;;;;;;5032598;28;20883;-73
2022/06/26 04:49:50;;;;;;;12.03;10.93;;;19.70;99.90;;;;;;5033923;28;20548;-74
2022/06/26 04:52:16;;;;;;;14.77;11.37;;;19.70;99.90;;;;;;5032615;28;20171;-71
2022/06/26 04:54:43;;;;;;;12.90;11.60;;;19.80;99.90;;;;;;5033841;28;20627;-73
2022/06/26 04:57:09;;;;;;;14.70;12.30;;;19.80;99.90;;;;;;5033058;28;20648;-70
2022/06/26 04:59:35;;;;;;;18.37;12.63;;;19.90;99.90;;;;;;5032438;28;20426;-70
2022/06/26 05:02:01;;;;;;;14.30;12.90;;;19.90;99.90;;;;;;5033830;28;20472;-71
2022/06/26 05:04:27;;;;;;;14.97;12.30;;;19.90;99.90;;;;;;5033433;28;20637;-71
2022/06/26 05:06:53;;;;;;;13.80;12.07;;;20.00;99.90;;;;;;5031062;28;20406;-74
2022/06/26 05:09:18;;;;;;;15.03;13.30;;;20.00;99.90;;;;;;5033535;28;20249;-70
2022/06/26 05:11:44;;;;;;;15.00;13.60;;;20.10;99.90;;;;;;5033598;28;20194;-75
2022/06/26 05:14:10;;;;;;;14.93;12.67;;;20.10;99.90;;;;;;5033694;28;20255;-71
2022/06/26 05:16:36;;;;;;;15.37;13.80;;;20.20;99.90;;;;;;5032719;28;20410;-71
2022/06/26 05:19:02;;;;;;;19.80;15.63;;;20.30;99.90;;;;;;5033301;28;20450;-75
2022/06/26 05:21:28;;;;;;;13.37;12.13;;;20.30;99.90;;;;;;5033432;28;20265;-74
2022/06/26 05:23:54;;;;;;;14.17;12.73;;;20.40;99.90;;;;;;5032323;28;20923;-70
2022/06/26 05:26:20;;;;;;;14.73;13.23;;;20.40;99.90;;;;;;5031591;28;20222;-70
2022/06/26 05:28:46;;;;;;;13.10;11.80;;;20.50;99.90;;;;;;5032568;28;20270;-75
2022/06/26 05:31:11;;;;;;;14.90;13.50;;;20.50;99.90;;;;;;5033413;28;20574;-74
2022/06/26 05:33:37;;;;;;;14.87;13.30;;;20.60;99.90;;;;;;5033289;28;20258;-70
2022/06/26 05:36:03;;;;;;;18.90;13.57;;;20.70;99.90;;;;;;5033363;28;20179;-75
2022/06/26 05:38:29;;;;;;;15.73;14.13;;;20.70;99.90;;;;;;5032347;28;20605;-70
2022/06/26 05:40:55;;;;;;;18.03;14.53;;;20.80;99.90;;;;;;5033034;28;20495;-72
2022/06/26 05:43:21;;;;;;;14.50;13.10;;;20.90;99.90;;;;;;5032662;28;20164;-72
2022/06/26 05:45:47;;;;;;;15.07;13.57;;;21.00;99.10;;;;;;5033151;28;20403;-73
2022/06/26 05:48:13;;;;;;;16.60;13.60;;;21.00;96.60;;;;;;5031999;28;20402;-71
2022/06/26 05:50:39;;;;;;;15.93;12.60;;;21.10;94.80;;;;;;5033033;28;20175;-74
2022/06/26 05:53:04;;;;;;;14.63;13.33;;;21.20;91.30;;;;;;5032896;28;20186;-72
2022/06/26 05:55:31;;;;;;;14.30;13.00;;;21.20;89.40;;;;;;5033046;28;20233;-72
2022/06/26 05:57:56;;;;;;;12.40;11.20;;;21.30;89.40;;;;;;5032143;28;20624;-72
2022/06/26 06:00:22;;;;;;;16.13;13.83;;;21.40;81.00;;;;;;5032996;28;20445;-73
2022/06/26 06:02:48;;;;;;;17.97;13.70;;;21.50;75.80;;;;;;5032230;28;20202;-73
2022/06/26 06:05:13;;;;;;;14.27;11.83;;;21.50;60.30;;;;;;5032924;28;20657;-74
2022/06/26 06:07:39;;;;;;;15.43;12.83;;;21.60;55.60;;;;;;5032023;28;20171;-75
2022/06/26 06:10:06;;;;;;;13.50;12.20;;;21.70;49.40;;;;;;5031549;28;20195;-74
2022/06/26 06:12:32;;;;;;;13.53;12.23;;;21.90;46.20;;;;;;5033042;28;20203;-75
2022/06/26 06:14:58;;;;;;;12.60;11.30;;;21.90;25.20;;;;;;5032826;28;20403;-74
2022/06/26 06:17:36;;;;;;;12.60;11.40;;;22.10;11.40;;;;;;5031835;28;20850;-75
2022/06/26 06:20:24;;;;;;;11.93;10.83;;;22.10;1.00;;;;;;5032648;28;20675;-74
2022/06/26 06:23:06;;;;;;;15.77;11.23;;;22.20;1.00;;;;;;5035492;28;20488;-75
2022/06/26 06:25:33;;;;;;;11.70;10.63;;;22.10;1.00;;;;;;5036695;28;20504;-74
2022/06/26 06:27:59;;;;;;;11.40;10.30;;;22.10;1.00;;;;;;5035784;28;20409;-75
2022/06/26 06:30:24;;;;;;;12.13;11.03;;;22.10;1.00;;;;;;5035594;28;20504;-74
2022/06/26 06:32:50;;;;;;;11.83;10.70;;;22.20;1.00;;;;;;5036558;28;20263;-75
2022/06/26 06:35:16;;;;;;;11.87;10.77;;;22.20;1.00;;;;;;5036537;28;20229;-75
2022/06/26 06:37:43;;;;;;;10.93;9.90;;;22.20;1.00;;;;;;5035589;28;20213;-73
2022/06/26 06:40:10;;;;;;;12.57;11.33;;;22.20;1.00;;;;;;5036018;28;20441;-75
2022/06/26 06:42:36;;;;;;;12.03;10.90;;;22.30;1.00;;;;;;5034895;28;20456;-74
2022/06/26 06:45:03;;;;;;;12.40;11.23;;;22.50;1.00;;;;;;5036263;28;20474;-75
2022/06/26 06:47:29;;;;;;;11.80;10.70;;;22.50;1.00;;;;;;5035320;28;20402;-75
2022/06/26 06:49:55;;;;;;;11.50;10.50;;;22.60;1.00;;;;;;5035055;28;20480;-76
2022/06/26 06:52:20;;;;;;;10.37;9.33;;;22.60;1.00;;;;;;5036103;28;20448;-75
2022/06/26 06:54:46;;;;;;;11.90;10.77;;;22.80;1.00;;;;;;5036099;28;20168;-75
2022/06/26 06:57:12;;;;;;;10.83;9.93;;;23.00;1.00;;;;;;5034805;28;20199;-76
2022/06/26 06:59:37;;;;;;;10.80;9.70;;;23.10;1.00;;;;;;5035861;28;20192;-76
2022/06/26 07:02:03;;;;;;;10.70;9.80;;;23.20;1.00;;;;;;5035868;28;20225;-76
2022/06/26 07:04:29;;;;;;;11.30;10.40;;;23.30;1.00;;;;;;5036136;28;20528;-76
2022/06/26 07:06:55;;;;;;;11.30;10.20;;;23.30;1.00;;;;;;5035096;28;20474;-74
2022/06/26 07:09:21;;;;;;;10.83;9.83;;;23.40;1.00;;;;;;5036027;28;20238;-75
2022/06/26 07:11:47;;;;;;;10.57;9.60;;;23.40;1.00;;;;;;5035690;28;20980;-75
2022/06/26 07:14:13;;;;;;;10.83;9.83;;;23.50;1.00;;;;;;5035159;28;20250;-74
2022/06/26 07:16:39;;;;;;;12.20;9.67;;;23.60;1.00;;;;;;5034967;28;20492;-74
2022/06/26 07:19:05;;;;;;;9.97;9.07;;;23.70;1.00;;;;;;5035609;28;20211;-75
2022/06/26 07:21:30;;;;;;;10.83;9.93;;;23.80;1.00;;;;;;5035631;28;20191;-74
2022/06/26 07:23:56;;;;;;;10.60;9.70;;;23.80;1.00;;;;;;5035708;28;20174;-73
2022/06/26 07:26:22;;;;;;;10.60;9.70;;;23.80;1.00;;;;;;5035411;28;20167;-69
2022/06/26 07:28:48;;;;;;;9.40;8.70;;;23.90;1.00;;;;;;5034755;28;20414;-70
2022/06/26 07:31:14;;;;;;;10.00;9.10;;;24.00;1.00;;;;;;5035001;28;20233;-73
2022/06/26 07:36:23;;;;;;;10.27;9.37;;;24.00;99.90;;;;;;5035164;28;20174;-73
2022/06/26 07:38:49;;;;;;;9.23;8.17;;;24.00;99.90;;;;;;5034821;28;20774;-69
2022/06/26 07:41:15;;;;;;;10.03;9.23;;;24.10;99.90;;;;;;5035264;28;20190;-69
2022/06/26 07:43:40;;;;;;;8.83;7.50;;;24.10;99.90;;;;;;5035327;28;20521;-73
2022/06/26 07:46:06;;;;;;;9.10;8.30;;;24.10;99.90;;;;;;5035069;28;20413;-72
2022/06/26 07:48:33;;;;;;;9.60;8.60;;;24.20;99.90;;;;;;5032621;28;20286;-74
2022/06/26 07:50:59;;;;;;;9.03;8.23;;;24.20;99.90;;;;;;5035194;28;20164;-73
2022/06/26 07:53:25;;;;;;;9.37;8.47;;;24.30;99.90;;;;;;5035195;28;20399;-73
2022/06/26 07:55:51;;;;;;;11.30;9.07;;;24.30;99.90;;;;;;5034877;28;20417;-69
2022/06/26 07:58:16;;;;;;;8.70;7.80;;;24.40;99.90;;;;;;5033874;28;20195;-69
2022/06/26 08:00:42;;;;;;;10.33;8.40;;;24.50;99.90;;;;;;5035057;28;20532;-68
2022/06/26 08:03:10;;;;;;;8.00;7.20;;;24.50;99.90;;;;;;5034949;28;20171;-73
2022/06/26 08:05:37;;;;;;;8.30;7.60;;;24.50;99.90;;;;;;5034497;28;20190;-69
2022/06/26 08:08:04;;;;;;;9.47;8.40;;;24.50;99.90;;;;;;5032503;28;20426;-69
2022/06/26 08:10:30;;;;;;;8.67;7.97;;;24.60;99.90;;;;;;5034627;28;20771;-73
2022/06/26 08:12:56;;;;;;;7.40;6.83;;;24.70;99.90;;;;;;5034700;28;20409;-69
2022/06/26 08:15:22;;;;;;;9.50;8.70;;;24.70;99.90;;;;;;5035027;28;20398;-69
2022/06/26 08:17:48;;;;;;;8.47;7.67;;;24.80;99.90;;;;;;5033733;28;20195;-73
2022/06/26 08:20:14;;;;;;;9.20;8.30;;;24.90;99.90;;;;;;5034425;28;20450;-70
2022/06/26 08:22:40;;;;;;;7.40;6.90;;;25.00;99.90;;;;;;5033321;28;20230;-69
2022/06/26 08:25:07;;;;;;;7.50;6.90;;;25.00;99.90;;;;;;5033831;28;20394;-69
2022/06/26 08:27:32;;;;;;;7.60;7.00;;;25.10;99.90;;;;;;5033768;28;20250;-70
2022/06/26 08:29:58;;;;;;;7.33;6.83;;;25.20;99.90;;;;;;5034396;28;20501;-68
2022/06/26 08:32:24;;;;;;;7.60;7.00;;;25.40;99.90;;;;;;5034325;28;20175;-69
2022/06/26 08:34:50;;;;;;;6.03;5.63;;;25.40;99.90;;;;;;5033224;28;20656;-69
2022/06/26 08:37:16;;;;;;;6.07;5.67;;;25.50;99.90;;;;;;5033440;28;20532;-74
2022/06/26 08:39:43;;;;;;;5.97;5.53;;;25.60;99.90;;;;;;5034199;28;20199;-70
2022/06/26 08:42:09;;;;;;;6.73;6.23;;;25.60;99.90;;;;;;5034122;28;20473;-70
2022/06/26 08:44:44;;;;;;;6.97;6.27;;;25.60;99.90;;;;;;5032956;28;20406;-70
2022/06/26 08:47:12;;;;;;;7.70;5.70;;;25.70;99.90;;;;;;5033251;28;20394;-73
2022/06/26 08:49:39;;;;;;;6.13;5.57;;;25.90;99.90;;;;;;5034008;28;20449;-73
2022/06/26 08:52:04;;;;;;;6.37;5.80;;;26.10;99.90;;;;;;5034076;28;20400;-70
2022/06/26 08:54:31;;;;;;;6.33;5.73;;;26.10;99.90;;;;;;5033885;28;20410;-76
2022/06/26 08:56:57;;;;;;;6.53;5.30;;;26.30;99.90;;;;;;5032035;28;20195;-71
2022/06/26 08:59:23;;;;;;;6.33;5.87;;;26.30;99.90;;;;;;5033837;28;20433;-75
2022/06/26 09:01:50;;;;;;;11.70;5.40;;;26.50;99.90;;;;;;5033331;28;20446;-74
2022/06/26 09:04:16;;;;;;;5.10;4.67;;;26.70;99.90;;;;;;5033556;28;20402;-75
2022/06/26 09:06:43;;;;;;;5.20;4.80;;;26.90;99.90;;;;;;5032824;28;20779;-72
2022/06/26 09:09:24;;;;;;;4.90;4.43;;;27.00;99.90;;;;;;5033660;28;20481;-74
2022/06/26 09:11:55;;;;;;;5.33;4.83;;;27.20;99.90;;;;;;5033628;28;20487;-74
2022/06/26 09:14:22;;;;;;;5.40;4.70;;;27.10;99.90;;;;;;5033604;28;20490;-71
2022/06/26 09:16:49;;;;;;;5.83;5.30;;;27.20;99.90;;;;;;5032612;28;20421;-71
2022/06/26 09:19:18;;;;;;;4.83;4.53;;;27.20;99.90;;;;;;5033092;28;20457;-74
2022/06/26 09:21:50;;;;;;;4.70;4.40;;;27.20;99.90;;;;;;5032012;28;20473;-71
2022/06/26 09:24:21;;;;;;;4.50;4.07;;;27.60;99.90;;;;;;5033319;28;20407;-72
2022/06/26 09:27:10;;;;;;;4.00;3.80;;;27.80;99.90;;;;;;5032469;28;20398;-73
2022/06/26 09:29:37;;;;;;;4.20;4.00;;;27.80;99.90;;;;;;5033179;28;20513;-77
2022/06/26 09:32:11;;;;;;;5.23;4.73;;;27.90;99.80;;;;;;5033457;28;20406;-76
2022/06/26 09:34:37;;;;;;;7.17;4.73;;;28.00;98.40;;;;;;5033319;28;20402;-75
2022/06/26 09:37:06;;;;;;;6.13;4.63;;;28.20;98.50;;;;;;5032348;28;20410;-76
2022/06/26 09:39:33;;;;;;;5.00;4.60;;;28.10;98.40;;;;;;5032717;28;20191;-71
2022/06/26 09:42:17;;;;;;;4.73;4.40;;;28.30;98.50;;;;;;5033138;28;20442;-75
2022/06/26 09:44:51;;;;;;;4.33;4.00;;;28.50;98.60;;;;;;5033138;28;20402;-74
2022/06/26 09:47:25;;;;;;;4.07;3.77;;;28.70;98.60;;;;;;5032247;28;20406;-74
2022/06/26 09:49:53;;;;;;;4.53;4.23;;;28.90;98.70;;;;;;5033009;28;20420;-71
2022/06/26 09:52:21;;;;;;;4.60;4.27;;;28.90;94.00;;;;;;5033090;28;20402;-75
2022/06/26 09:54:48;;;;;;;5.57;4.40;;;29.00;92.20;;;;;;5033128;28;20401;-69
2022/06/26 09:57:14;;;;;;;4.40;4.00;;;29.20;92.40;;;;;;5029634;28;20414;-70
2022/06/26 09:59:41;;;;;;;4.80;4.40;;;29.50;84.90;;;;;;5032711;28;20548;-74
2022/06/26 10:08:03;;;;;;;3.70;3.40;;;30.10;72.60;;;;;;5032099;28;20932;-72
2022/06/26 10:10:32;;;;;;;6.13;4.03;;;30.20;71.10;;;;;;5032857;28;20445;-73
2022/06/26 10:13:06;;;;;;;4.37;4.07;;;30.30;62.60;;;;;;5032889;28;20464;-70
2022/06/26 10:15:58;;;;;;;4.20;3.90;;;30.00;55.70;;;;;;5032184;28;20398;-74
2022/06/26 10:18:42;;;;;;;4.90;4.30;;;29.90;54.70;;;;;;5031805;28;20469;-69
2022/06/26 10:21:12;;;;;;;3.63;3.43;;;29.90;55.60;;;;;;5032619;28;20959;-75
2022/06/26 10:23:40;;;;;;;3.37;3.17;;;29.90;48.00;;;;;;5032815;28;20406;-69
2022/06/26 10:26:12;;;;;;;3.63;3.40;;;29.80;41.70;;;;;;5032865;28;20949;-68
2022/06/26 10:28:38;;;;;;;3.73;3.30;;;30.10;41.90;;;;;;5031900;28;20422;-70
2022/06/26 10:31:07;;;;;;;3.50;3.30;;;30.10;36.10;;;;;;5032671;28;20406;-72
2022/06/26 10:33:33;;;;;;;6.10;4.10;;;30.10;36.50;;;;;;5031007;28;20190;-69
2022/06/26 10:35:58;;;;;;;3.97;3.10;;;30.40;41.70;;;;;;5032686;28;20418;-69
2022/06/26 10:38:26;;;;;;;3.87;3.57;;;30.60;36.30;;;;;;5031650;28;20222;-70
2022/06/26 10:44:29;;;;;;;3.00;2.80;;;30.50;32.40;;;;;;5032895;28;20456;-73
2022/06/26 10:46:58;;;;;;;3.90;3.50;;;30.60;30.00;;;;;;5033777;28;20483;-70
2022/06/26 10:49:23;;;;;;;3.20;2.90;;;30.70;28.50;;;;;;5032544;28;20418;-70
2022/06/26 10:51:49;;;;;;;3.50;3.30;;;30.90;32.80;;;;;;5031305;28;20509;-74
2022/06/26 10:54:23;;;;;;;3.70;3.10;;;30.90;27.40;;;;;;5031906;28;20168;-70
2022/06/26 10:57:18;;;;;;;4.63;3.37;;;31.00;30.00;;;;;;5031718;28;20271;-77
2022/06/26 10:59:44;;;;;;;3.93;3.73;;;30.90;23.50;;;;;;5031040;28;20849;-70
2022/06/26 11:02:11;;;;;;;3.27;3.07;;;31.10;34.90;;;;;;5032475;28;20461;-74
2022/06/26 11:04:48;;;;;;;3.93;3.63;;;31.30;26.20;;;;;;5032435;28;20434;-69
2022/06/26 11:07:15;;;;;;;3.67;3.47;;;31.40;26.40;;;;;;5032191;28;20405;-75
2022/06/26 11:09:41;;;;;;;5.63;3.30;;;31.60;25.00;;;;;;5035284;28;20466;-69
2022/06/26 11:12:07;;;;;;;5.10;4.70;;;31.70;21.00;;;;;;5035818;28;20496;-72
2022/06/26 11:14:33;;;;;;;5.57;4.03;;;31.80;23.00;;;;;;5035905;28;20529;-69
2022/06/26 11:16:58;;;;;;;5.33;4.47;;;32.30;25.80;;;;;;5034928;28;20176;-72
2022/06/26 11:19:24;;;;;;;4.47;4.17;;;32.30;16.40;;;;;;5035781;28;20684;-70
2022/06/26 11:21:50;;;;;;;4.73;4.33;;;32.40;16.30;;;;;;5035591;28;20192;-70
2022/06/26 11:24:16;;;;;;;4.90;4.60;;;32.10;18.00;;;;;;5035657;28;20175;-72
2022/06/26 11:26:42;;;;;;;4.80;4.50;;;31.40;21.00;;;;;;5034818;28;20448;-69
2022/06/26 11:29:11;;;;;;;5.00;4.40;;;30.80;22.20;;;;;;5034876;28;20354;-73
2022/06/26 11:31:36;;;;;;;5.43;5.03;;;30.30;23.80;;;;;;5035483;28;20472;-72
2022/06/26 11:34:13;;;;;;;6.80;6.07;;;29.70;26.80;;;;;;5035568;28;20907;-72
2022/06/26 11:36:53;;;;;;;5.77;5.37;;;29.50;32.20;;;;;;5034492;28;20171;-71
2022/06/26 11:39:19;;;;;;;5.50;5.00;;;30.20;44.50;;;;;;5035383;28;20426;-71
2022/06/26 11:41:46;;;;;;;6.63;6.07;;;30.80;42.60;;;;;;5035196;28;20458;-69
2022/06/26 11:44:12;;;;;;;8.00;5.60;;;30.60;39.90;;;;;;5035341;28;20798;-71
2022/06/26 11:46:37;;;;;;;7.23;6.63;;;30.70;51.20;;;;;;5033740;28;20425;-75
2022/06/26 11:49:03;;;;;;;6.13;5.60;;;30.70;61.30;;;;;;5034202;28;20434;-70
2022/06/26 11:51:32;;;;;;;7.10;6.60;;;31.10;69.80;;;;;;5035385;28;20675;-72
2022/06/26 11:53:58;;;;;;;7.97;7.07;;;31.10;64.40;;;;;;5034940;28;20301;-70
2022/06/26 11:56:29;;;;;;;9.03;7.00;;;31.10;65.70;;;;;;5034816;28;20467;-71
2022/06/26 11:58:57;;;;;;;6.93;6.20;;;31.40;64.60;;;;;;5034933;28;20426;-72
2022/06/26 12:01:43;;;;;;;7.57;6.90;;;31.10;64.40;;;;;;5035126;28;20484;-72
2022/06/26 12:04:10;;;;;;;6.90;6.30;;;31.00;63.70;;;;;;5034248;28;20468;-72
2022/06/26 12:06:40;;;;;;;6.00;5.50;;;31.50;68.70;;;;;;5034275;28;20961;-72
2022/06/26 12:09:21;;;;;;;5.27;4.77;;;31.90;66.20;;;;;;5033468;28;20427;-69
2022/06/26 12:11:49;;;;;;;4.90;4.60;;;32.60;62.70;;;;;;5034736;28;20413;-71
2022/06/26 12:14:17;;;;;;;5.40;5.00;;;32.30;53.30;;;;;;5033387;28;20406;-72
2022/06/26 12:16:47;;;;;;;6.43;4.50;;;31.20;45.40;;;;;;5033960;28;20402;-70
2022/06/26 12:19:14;;;;;;;4.87;4.47;;;30.80;44.80;;;;;;5033768;28;20541;-72
2022/06/26 12:21:39;;;;;;;4.30;4.10;;;30.20;42.80;;;;;;5033946;28;20978;-75
2022/06/26 12:24:11;;;;;;;4.40;4.10;;;29.50;44.90;;;;;;5034654;28;20433;-71
2022/06/26 12:26:39;;;;;;;5.00;4.07;;;29.00;45.10;;;;;;5033643;28;20179;-74
2022/06/26 12:29:25;;;;;;;4.37;4.10;;;28.80;50.10;;;;;;5034402;28;20429;-73
2022/06/26 12:31:51;;;;;;;7.93;4.67;;;28.80;47.10;;;;;;5034391;28;20410;-71
2022/06/26 12:34:17;;;;;;;3.70;3.40;;;28.50;42.30;;;;;;5032906;28;20418;-74
2022/06/26 12:36:43;;;;;;;3.67;3.47;;;27.90;41.60;;;;;;5033070;28;20414;-72
2022/06/26 12:39:11;;;;;;;4.90;3.43;;;27.70;44.30;;;;;;5033987;28;20656;-75
2022/06/26 12:41:37;;;;;;;5.23;3.60;;;27.70;49.50;;;;;;5034205;28;20199;-74
2022/06/26 12:44:03;;;;;;;3.50;3.00;;;28.30;56.40;;;;;;5034352;28;20413;-71
2022/06/26 12:46:33;;;;;;;3.80;3.10;;;28.70;51.70;;;;;;5033182;28;20398;-77
2022/06/26 12:48:59;;;;;;;3.10;2.80;;;29.20;52.30;;;;;;5033990;28;20418;-74
2022/06/26 12:51:25;;;;;;;2.33;2.23;;;29.40;54.80;;;;;;5032806;28;20414;-75
2022/06/26 12:53:51;;;;;;;2.10;1.90;;;29.70;52.00;;;;;;5033871;28;20506;-74
2022/06/26 12:56:17;;;;;;;2.87;2.67;;;29.80;49.60;;;;;;5033653;28;20171;-71